Long Eddy, New York
Current Conditions -  °F | °C
As of 5:55 AM on Friday 31 Oct 2014 (Local Time) from KMSV Reporting Station
Clear Clear  
Wind Chill: 22°   Ceiling: Unl
Heat Index: 28°   Visibility: 10mi
Dew Point: 27°   Wind: 6mph
Humidity: 93%   Direction: 300°WNW
Pressure: 30"   Gusts: NA
Location:  41.85°N, 75.13°W
Report Text: KMSV 310955Z AUTO 30005KT 10SM CLR M02/M03 A3000 RMK AO1
Loading
Personal Weather Stations






























Interactive Weather Map
Tropical Storm Tracking
New forecast layout! Learn more

10-Day Weather Forecast

Advertisements
Track Severe Weather on mobile